createdAt,value
2018-07-01T00:02:11.396Z,24.50
2018-07-01T00:07:14.503Z,24.40
2018-07-01T00:12:18.015Z,24.70
2018-07-01T00:17:21.336Z,25.10
2018-07-01T00:22:24.395Z,25.50
2018-07-01T00:27:27.641Z,26.00
2018-07-01T00:32:30.964Z,26.10
2018-07-01T00:37:34.101Z,26.40
2018-07-01T00:42:37.481Z,26.70
2018-07-01T00:47:40.533Z,27.30
2018-07-01T00:52:43.617Z,27.80
2018-07-01T00:57:47.203Z,27.70
2018-07-01T01:02:51.640Z,27.40
2018-07-01T01:07:55.107Z,27.60
2018-07-01T01:12:58.400Z,27.70
2018-07-01T01:18:01.388Z,27.90
2018-07-01T01:23:04.484Z,27.90
2018-07-01T01:28:07.796Z,28.30
2018-07-01T01:33:11.101Z,28.60
2018-07-01T01:38:14.208Z,28.80
2018-07-01T01:43:22.858Z,29.10
2018-07-01T01:48:31.383Z,28.90
2018-07-01T01:53:41.922Z,29.40
2018-07-01T01:58:56.059Z,29.80
2018-07-01T02:05:04.559Z,30.10
2018-07-01T02:10:07.692Z,29.80
2018-07-01T02:15:14.874Z,30.00
2018-07-01T02:20:20.953Z,30.10
2018-07-01T02:25:26.730Z,30.40
2018-07-01T02:30:30.150Z,30.70
2018-07-01T02:35:33.311Z,30.90
2018-07-01T02:40:36.232Z,31.40
2018-07-01T02:45:39.286Z,31.60
2018-07-01T02:50:42.653Z,31.90
2018-07-01T02:55:45.679Z,32.30
2018-07-01T03:00:48.955Z,32.40
2018-07-01T03:05:52.017Z,32.80
2018-07-01T03:10:55.036Z,33.00
2018-07-01T03:15:58.044Z,33.40
2018-07-01T03:21:01.056Z,33.50
2018-07-01T03:26:04.149Z,33.50
2018-07-01T03:31:07.271Z,33.60
2018-07-01T03:36:10.397Z,34.00
2018-07-01T03:41:13.466Z,34.00
2018-07-01T03:46:16.491Z,34.50
2018-07-01T03:51:20.328Z,34.60
2018-07-01T03:56:23.326Z,34.30
2018-07-01T04:01:26.368Z,33.90
2018-07-01T04:06:29.759Z,33.60
2018-07-01T04:11:32.812Z,33.80
2018-07-01T04:16:36.092Z,32.50
2018-07-01T04:21:39.117Z,31.50
2018-07-01T04:26:42.580Z,30.10
2018-07-01T04:31:45.652Z,25.80
2018-07-01T04:36:48.714Z,23.70
2018-07-01T04:41:51.776Z,22.40
2018-07-01T04:46:54.938Z,22.90
2018-07-01T04:51:58.264Z,22.70
2018-07-01T04:57:01.272Z,22.30
2018-07-01T05:02:04.337Z,22.30
2018-07-01T05:07:07.745Z,21.80
2018-07-01T05:12:11.059Z,20.60
2018-07-01T05:17:14.144Z,19.50
2018-07-01T05:22:17.083Z,19.20
2018-07-01T05:27:20.132Z,18.20
2018-07-01T05:32:23.331Z,17.00
2018-07-01T05:37:26.337Z,17.40
2018-07-01T05:42:29.323Z,17.30
2018-07-01T05:47:32.460Z,18.10
2018-07-01T05:52:35.499Z,17.60
2018-07-01T05:57:38.656Z,17.10
2018-07-01T06:02:41.745Z,17.10
2018-07-01T06:07:44.800Z,17.80
2018-07-01T06:12:47.819Z,17.10
2018-07-01T06:17:51.007Z,17.60
2018-07-01T06:22:54.175Z,17.60
2018-07-01T06:27:57.137Z,17.90
2018-07-01T06:33:00.444Z,17.90
2018-07-01T06:38:03.641Z,17.90
2018-07-01T06:43:06.727Z,17.20
2018-07-01T06:48:09.801Z,16.50
2018-07-01T06:53:12.858Z,15.40
2018-07-01T06:58:15.831Z,15.20
2018-07-01T07:03:18.788Z,14.00
2018-07-01T07:08:21.990Z,14.90
2018-07-01T07:13:24.968Z,14.30
2018-07-01T07:18:28.208Z,14.50
2018-07-01T07:23:31.813Z,14.70
2018-07-01T07:28:34.828Z,14.70
2018-07-01T07:33:37.878Z,13.60
2018-07-01T07:38:41.120Z,14.00
2018-07-01T07:43:44.086Z,14.80
2018-07-01T07:48:47.376Z,12.70
2018-07-01T07:53:50.387Z,12.30
2018-07-01T07:58:53.586Z,12.40
2018-07-01T08:03:56.619Z,13.20
2018-07-01T08:08:59.576Z,13.50
2018-07-01T08:14:02.833Z,12.70
2018-07-01T08:19:05.836Z,12.70
2018-07-01T08:24:08.805Z,13.40
2018-07-01T08:29:11.934Z,11.70
2018-07-01T08:39:18.078Z,11.80
2018-07-01T08:44:21.201Z,12.00
2018-07-01T08:49:24.438Z,12.00
2018-07-01T08:54:27.470Z,12.10
2018-07-01T08:59:30.653Z,12.40
2018-07-01T09:27:10.640Z,10.90
2018-07-01T09:32:13.874Z,12.10
2018-07-01T09:37:17.091Z,11.70
2018-07-01T09:42:20.396Z,12.30
2018-07-01T09:47:23.484Z,10.80
2018-07-01T09:52:26.557Z,11.50
2018-07-01T09:57:29.615Z,11.80
2018-07-01T10:02:32.660Z,12.40
2018-07-01T10:07:35.904Z,12.20
2018-07-01T10:12:38.977Z,13.00
2018-07-01T10:17:41.926Z,12.70
2018-07-01T10:22:45.134Z,12.10
2018-07-01T10:49:17.888Z,11.10
2018-07-01T10:54:20.852Z,11.70
2018-07-01T10:59:23.913Z,12.00
2018-07-01T11:04:26.948Z,10.80
2018-07-01T11:09:29.991Z,11.00
2018-07-01T11:14:33.214Z,11.50
2018-07-01T11:19:36.252Z,10.70
2018-07-01T11:24:39.508Z,10.60
2018-07-01T11:29:42.603Z,10.40
2018-07-01T11:34:45.837Z,12.10
2018-07-01T11:39:49.247Z,11.70
2018-07-01T11:44:52.288Z,11.70
2018-07-01T11:49:55.349Z,12.20
2018-07-01T11:54:58.545Z,12.00
2018-07-01T12:00:01.735Z,12.80
2018-07-01T12:05:16.660Z,12.80
2018-07-01T12:15:11.487Z,12.60
2018-07-01T12:20:14.664Z,12.50
2018-07-01T12:25:17.813Z,13.00
2018-07-01T12:30:20.893Z,13.70
2018-07-01T12:35:23.935Z,13.20
2018-07-01T12:40:27.148Z,13.30
2018-07-01T12:45:30.275Z,13.30
2018-07-01T12:50:33.415Z,13.70
2018-07-01T12:55:36.571Z,12.90
2018-07-01T13:05:42.673Z,12.80
2018-07-01T13:10:45.955Z,13.60
2018-07-01T13:15:49.045Z,12.90
2018-07-01T13:20:52.049Z,12.00
2018-07-01T13:25:55.103Z,13.50
2018-07-01T13:30:58.097Z,12.30
2018-07-01T13:36:01.266Z,12.60
2018-07-01T13:41:05.597Z,11.80
2018-07-01T13:46:08.870Z,11.90
2018-07-01T13:51:11.899Z,11.20
2018-07-01T13:56:14.922Z,12.00
2018-07-01T14:01:17.916Z,13.00
2018-07-01T14:06:21.058Z,11.90
2018-07-01T14:11:24.148Z,11.90
2018-07-01T14:16:27.173Z,12.70
2018-07-01T14:21:30.310Z,12.50
2018-07-01T14:26:33.381Z,12.10
2018-07-01T14:31:36.456Z,11.50
2018-07-01T14:36:39.524Z,12.50
2018-07-01T14:41:43.353Z,11.80
2018-07-01T14:46:46.629Z,11.40
2018-07-01T14:51:49.837Z,11.10
2018-07-01T14:56:52.866Z,12.10
2018-07-01T15:01:55.939Z,11.80
2018-07-01T15:06:58.944Z,10.60
2018-07-01T15:12:02.144Z,10.90
2018-07-01T15:17:05.218Z,11.20
2018-07-01T15:22:08.718Z,11.00
2018-07-01T15:27:11.875Z,11.70
2018-07-01T15:32:15.109Z,11.80
2018-07-01T15:42:21.544Z,11.30
2018-07-01T15:47:24.816Z,12.20
2018-07-01T15:52:27.884Z,11.50
2018-07-01T15:57:31.557Z,12.20
2018-07-01T16:02:34.751Z,12.00
2018-07-01T16:07:37.976Z,12.40
2018-07-01T16:12:41.163Z,12.20
2018-07-01T16:17:44.305Z,12.10
2018-07-01T16:22:47.338Z,12.30
2018-07-01T16:27:56.128Z,11.70
2018-07-01T16:32:59.346Z,11.30
2018-07-01T16:38:02.400Z,11.80
2018-07-01T16:43:07.649Z,10.90
2018-07-01T16:48:10.772Z,11.70
2018-07-01T16:53:13.940Z,11.70
2018-07-01T16:58:16.884Z,11.70
2018-07-01T17:03:19.977Z,10.90
2018-07-01T17:08:23.088Z,11.70
2018-07-01T17:13:26.227Z,11.40
2018-07-01T17:18:29.494Z,11.10
2018-07-01T17:28:35.706Z,11.30
2018-07-01T17:33:38.907Z,11.10
2018-07-01T17:38:41.917Z,11.40
2018-07-01T17:43:45.476Z,11.50
2018-07-01T17:48:48.600Z,11.20
2018-07-01T17:53:55.144Z,11.80
2018-07-01T17:58:58.438Z,11.40
2018-07-01T18:04:01.505Z,12.00
2018-07-01T18:09:08.037Z,11.70
2018-07-01T18:14:11.282Z,11.90
2018-07-01T18:19:14.498Z,12.20
2018-07-01T18:24:42.847Z,12.30
2018-07-01T18:29:21.049Z,12.20
2018-07-01T18:34:23.934Z,11.90
2018-07-01T18:39:27.216Z,12.70
2018-07-01T18:44:30.371Z,12.40
2018-07-01T18:49:34.024Z,12.80
2018-07-01T18:54:37.396Z,13.00
2018-07-01T18:59:40.394Z,13.10
2018-07-01T19:04:43.896Z,13.20
2018-07-01T19:09:47.291Z,13.40
2018-07-01T19:14:50.517Z,13.40
2018-07-01T19:19:53.565Z,13.40
2018-07-01T19:24:56.950Z,13.60
2018-07-01T19:30:00.165Z,13.40
2018-07-01T19:35:03.558Z,13.60
2018-07-01T19:40:06.657Z,13.50
2018-07-01T19:45:09.790Z,13.70
2018-07-01T19:50:12.761Z,13.60
2018-07-01T19:55:16.073Z,14.10
2018-07-01T20:00:19.268Z,14.80
2018-07-01T20:05:22.547Z,14.90
2018-07-01T20:10:25.799Z,15.00
2018-07-01T20:15:28.872Z,15.60
2018-07-01T20:20:32.122Z,15.70
2018-07-01T20:25:35.396Z,15.80
2018-07-01T20:30:38.385Z,15.70
2018-07-01T20:35:41.640Z,16.50
2018-07-01T20:40:44.649Z,16.30
2018-07-01T20:45:47.723Z,16.40
2018-07-01T20:50:50.825Z,16.50
2018-07-01T20:55:53.980Z,16.90
2018-07-01T21:06:00.294Z,19.10
2018-07-01T21:11:03.596Z,19.80
2018-07-01T21:16:06.612Z,20.40
2018-07-01T21:21:09.889Z,19.50
2018-07-01T21:26:13.216Z,21.90
2018-07-01T21:31:16.240Z,24.40
2018-07-01T21:36:19.310Z,25.60
2018-07-01T21:41:22.398Z,26.10
2018-07-01T21:46:25.360Z,26.70
2018-07-01T21:51:28.404Z,26.30
2018-07-01T21:56:31.447Z,26.30
2018-07-01T22:01:34.523Z,26.30
2018-07-01T22:06:43.173Z,26.60
2018-07-01T22:12:05.424Z,26.80
2018-07-01T22:17:11.491Z,27.00
2018-07-01T22:22:14.740Z,27.20
2018-07-01T22:27:17.947Z,27.40
2018-07-01T22:32:20.912Z,27.40
2018-07-01T22:37:23.941Z,27.60
2018-07-01T22:42:26.967Z,27.90
2018-07-01T22:47:30.040Z,28.20
2018-07-01T22:52:33.100Z,28.50
2018-07-01T22:57:36.350Z,28.00
2018-07-01T23:02:59.947Z,27.90
2018-07-01T23:08:03.183Z,28.50
2018-07-01T23:13:06.474Z,28.40
2018-07-01T23:18:09.637Z,29.00
2018-07-01T23:23:12.640Z,29.70
2018-07-01T23:28:15.636Z,29.80
2018-07-01T23:33:18.696Z,29.80
2018-07-01T23:38:21.675Z,29.30
2018-07-01T23:43:24.855Z,29.30
2018-07-01T23:48:27.832Z,29.10
2018-07-01T23:53:30.868Z,28.80
2018-07-01T23:58:34.073Z,28.60
